sensor_id;sensor_type;location;lat;lon;timestamp;P1;durP1;ratioP1;P2;durP2;ratioP2
28920;SDS011;16035;53.594;9.952;2022-09-21T00:01:58;106.68;;;33.47;;
28920;SDS011;16035;53.594;9.952;2022-09-21T00:04:02;122.13;;;40.20;;
28920;SDS011;16035;53.594;9.952;2022-09-21T00:06:07;201.13;;;60.65;;
28920;SDS011;16035;53.594;9.952;2022-09-21T00:08:09;261.30;;;78.03;;
28920;SDS011;16035;53.594;9.952;2022-09-21T00:10:11;279.92;;;92.78;;
28920;SDS011;16035;53.594;9.952;2022-09-21T00:12:12;192.87;;;64.83;;
28920;SDS011;16035;53.594;9.952;2022-09-21T00:14:12;175.87;;;64.20;;
28920;SDS011;16035;53.594;9.952;2022-09-21T00:16:13;170.07;;;59.78;;
28920;SDS011;16035;53.594;9.952;2022-09-21T00:18:15;164.48;;;59.60;;
28920;SDS011;16035;53.594;9.952;2022-09-21T00:20:16;151.43;;;60.43;;
28920;SDS011;16035;53.594;9.952;2022-09-21T00:22:16;142.83;;;60.87;;
28920;SDS011;16035;53.594;9.952;2022-09-21T00:24:17;130.63;;;56.77;;
28920;SDS011;16035;53.594;9.952;2022-09-21T00:26:19;108.70;;;46.40;;
28920;SDS011;16035;53.594;9.952;2022-09-21T00:28:21;78.07;;;38.50;;
28920;SDS011;16035;53.594;9.952;2022-09-21T00:30:21;52.20;;;26.53;;
28920;SDS011;16035;53.594;9.952;2022-09-21T00:32:21;33.03;;;15.40;;
28920;SDS011;16035;53.594;9.952;2022-09-21T00:34:24;28.90;;;14.55;;
28920;SDS011;16035;53.594;9.952;2022-09-21T00:36:25;20.50;;;11.47;;
28920;SDS011;16035;53.594;9.952;2022-09-21T00:38:26;27.92;;;13.23;;
28920;SDS011;16035;53.594;9.952;2022-09-21T00:40:26;34.13;;;15.23;;
28920;SDS011;16035;53.594;9.952;2022-09-21T00:42:31;39.70;;;18.90;;
28920;SDS011;16035;53.594;9.952;2022-09-21T00:44:33;92.10;;;40.33;;
28920;SDS011;16035;53.594;9.952;2022-09-21T00:46:33;207.00;;;92.40;;
28920;SDS011;16035;53.594;9.952;2022-09-21T00:48:38;93.93;;;44.65;;
28920;SDS011;16035;53.594;9.952;2022-09-21T00:50:41;67.72;;;33.47;;
28920;SDS011;16035;53.594;9.952;2022-09-21T00:52:46;48.33;;;24.27;;
28920;SDS011;16035;53.594;9.952;2022-09-21T00:54:52;43.70;;;21.33;;
28920;SDS011;16035;53.594;9.952;2022-09-21T00:56:55;39.05;;;19.40;;
28920;SDS011;16035;53.594;9.952;2022-09-21T00:59:00;31.83;;;15.50;;
28920;SDS011;16035;53.594;9.952;2022-09-21T01:01:01;24.95;;;13.32;;
28920;SDS011;16035;53.594;9.952;2022-09-21T01:03:02;24.60;;;11.83;;
28920;SDS011;16035;53.594;9.952;2022-09-21T01:05:04;18.02;;;9.15;;
28920;SDS011;16035;53.594;9.952;2022-09-21T01:07:08;15.43;;;7.55;;
28920;SDS011;16035;53.594;9.952;2022-09-21T01:09:13;12.55;;;6.65;;
28920;SDS011;16035;53.594;9.952;2022-09-21T01:13:46;14.27;;;5.72;;
28920;SDS011;16035;53.594;9.952;2022-09-21T01:20:28;19.23;;;8.77;;
28920;SDS011;16035;53.594;9.952;2022-09-21T01:30:33;22.05;;;10.15;;
28920;SDS011;16035;53.594;9.952;2022-09-21T01:32:39;49.67;;;25.60;;
28920;SDS011;16035;53.594;9.952;2022-09-21T01:34:57;112.22;;;58.53;;
28920;SDS011;16035;53.594;9.952;2022-09-21T01:37:02;102.32;;;52.92;;
28920;SDS011;16035;53.594;9.952;2022-09-21T01:39:09;44.08;;;25.35;;
28920;SDS011;16035;53.594;9.952;2022-09-21T01:41:12;27.33;;;16.42;;
28920;SDS011;16035;53.594;9.952;2022-09-21T01:43:21;23.42;;;12.18;;
28920;SDS011;16035;53.594;9.952;2022-09-21T01:45:31;21.70;;;9.98;;
28920;SDS011;16035;53.594;9.952;2022-09-21T01:47:35;16.67;;;7.90;;
28920;SDS011;16035;53.594;9.952;2022-09-21T01:49:44;16.92;;;7.68;;
28920;SDS011;16035;53.594;9.952;2022-09-21T01:51:50;16.10;;;6.47;;
28920;SDS011;16035;53.594;9.952;2022-09-21T01:53:55;13.18;;;6.57;;
28920;SDS011;16035;53.594;9.952;2022-09-21T01:56:04;15.90;;;8.45;;
28920;SDS011;16035;53.594;9.952;2022-09-21T01:58:29;14.52;;;7.57;;
28920;SDS011;16035;53.594;9.952;2022-09-21T02:00:35;12.50;;;6.85;;
28920;SDS011;16035;53.594;9.952;2022-09-21T02:04:45;17.38;;;8.25;;
28920;SDS011;16035;53.594;9.952;2022-09-21T02:06:46;12.17;;;7.67;;
28920;SDS011;16035;53.594;9.952;2022-09-21T02:08:48;16.08;;;7.50;;
28920;SDS011;16035;53.594;9.952;2022-09-21T02:10:49;12.37;;;7.67;;
28920;SDS011;16035;53.594;9.952;2022-09-21T02:12:52;10.45;;;5.65;;
28920;SDS011;16035;53.594;9.952;2022-09-21T02:15:00;12.88;;;5.90;;
28920;SDS011;16035;53.594;9.952;2022-09-21T02:26:07;10.18;;;4.78;;
28920;SDS011;16035;53.594;9.952;2022-09-21T02:30:27;7.63;;;3.28;;
28920;SDS011;16035;53.594;9.952;2022-09-21T02:35:31;8.15;;;3.20;;
28920;SDS011;16035;53.594;9.952;2022-09-21T02:37:34;6.85;;;3.05;;
28920;SDS011;16035;53.594;9.952;2022-09-21T02:39:47;6.75;;;3.10;;
28920;SDS011;16035;53.594;9.952;2022-09-21T02:42:12;5.63;;;2.85;;
28920;SDS011;16035;53.594;9.952;2022-09-21T02:46:33;8.13;;;2.70;;
28920;SDS011;16035;53.594;9.952;2022-09-21T02:48:43;6.07;;;2.50;;
28920;SDS011;16035;53.594;9.952;2022-09-21T02:50:51;5.30;;;2.42;;
28920;SDS011;16035;53.594;9.952;2022-09-21T02:52:55;5.50;;;2.17;;
28920;SDS011;16035;53.594;9.952;2022-09-21T02:54:56;5.45;;;2.28;;
28920;SDS011;16035;53.594;9.952;2022-09-21T02:56:59;5.55;;;2.10;;
28920;SDS011;16035;53.594;9.952;2022-09-21T02:59:02;6.68;;;2.35;;
28920;SDS011;16035;53.594;9.952;2022-09-21T03:01:04;3.22;;;2.00;;
28920;SDS011;16035;53.594;9.952;2022-09-21T03:03:17;5.03;;;2.90;;
28920;SDS011;16035;53.594;9.952;2022-09-21T03:05:19;4.25;;;2.05;;
28920;SDS011;16035;53.594;9.952;2022-09-21T03:07:20;8.60;;;2.10;;
28920;SDS011;16035;53.594;9.952;2022-09-21T03:09:20;5.97;;;2.10;;
28920;SDS011;16035;53.594;9.952;2022-09-21T03:11:23;4.22;;;2.03;;
28920;SDS011;16035;53.594;9.952;2022-09-21T03:13:24;6.65;;;2.35;;
28920;SDS011;16035;53.594;9.952;2022-09-21T03:15:24;4.70;;;2.00;;
28920;SDS011;16035;53.594;9.952;2022-09-21T03:19:26;2.83;;;1.67;;
28920;SDS011;16035;53.594;9.952;2022-09-21T03:21:28;4.87;;;2.10;;
28920;SDS011;16035;53.594;9.952;2022-09-21T03:23:28;6.37;;;2.13;;
28920;SDS011;16035;53.594;9.952;2022-09-21T03:25:29;3.33;;;1.90;;
28920;SDS011;16035;53.594;9.952;2022-09-21T03:27:30;3.13;;;2.07;;
28920;SDS011;16035;53.594;9.952;2022-09-21T03:29:30;7.03;;;2.53;;
28920;SDS011;16035;53.594;9.952;2022-09-21T03:31:30;5.73;;;1.87;;
28920;SDS011;16035;53.594;9.952;2022-09-21T03:33:31;9.53;;;2.50;;
28920;SDS011;16035;53.594;9.952;2022-09-21T03:35:32;3.80;;;2.30;;
28920;SDS011;16035;53.594;9.952;2022-09-21T03:37:32;4.55;;;1.90;;
28920;SDS011;16035;53.594;9.952;2022-09-21T03:39:33;8.03;;;2.13;;
28920;SDS011;16035;53.594;9.952;2022-09-21T03:41:33;4.83;;;2.03;;
28920;SDS011;16035;53.594;9.952;2022-09-21T03:43:34;4.17;;;2.10;;
28920;SDS011;16035;53.594;9.952;2022-09-21T03:45:34;6.07;;;2.17;;
28920;SDS011;16035;53.594;9.952;2022-09-21T03:47:35;7.03;;;1.97;;
28920;SDS011;16035;53.594;9.952;2022-09-21T03:49:36;3.25;;;2.00;;
28920;SDS011;16035;53.594;9.952;2022-09-21T03:51:37;7.28;;;2.15;;
28920;SDS011;16035;53.594;9.952;2022-09-21T03:53:38;8.40;;;2.75;;
28920;SDS011;16035;53.594;9.952;2022-09-21T03:55:38;7.53;;;3.10;;
28920;SDS011;16035;53.594;9.952;2022-09-21T03:57:39;7.63;;;2.60;;
28920;SDS011;16035;53.594;9.952;2022-09-21T03:59:40;8.40;;;3.00;;
28920;SDS011;16035;53.594;9.952;2022-09-21T04:01:41;12.63;;;3.30;;
28920;SDS011;16035;53.594;9.952;2022-09-21T04:03:41;8.77;;;3.20;;
28920;SDS011;16035;53.594;9.952;2022-09-21T04:05:41;9.43;;;3.17;;
28920;SDS011;16035;53.594;9.952;2022-09-21T04:07:42;10.43;;;3.63;;
28920;SDS011;16035;53.594;9.952;2022-09-21T04:09:44;6.80;;;3.20;;
28920;SDS011;16035;53.594;9.952;2022-09-21T04:11:45;8.37;;;3.97;;
28920;SDS011;16035;53.594;9.952;2022-09-21T04:13:50;5.22;;;2.67;;
28920;SDS011;16035;53.594;9.952;2022-09-21T04:15:56;6.57;;;2.90;;
28920;SDS011;16035;53.594;9.952;2022-09-21T04:17:57;10.27;;;3.40;;
28920;SDS011;16035;53.594;9.952;2022-09-21T04:19:58;9.57;;;4.45;;
28920;SDS011;16035;53.594;9.952;2022-09-21T04:21:58;10.32;;;4.35;;
28920;SDS011;16035;53.594;9.952;2022-09-21T04:23:59;15.10;;;4.22;;
28920;SDS011;16035;53.594;9.952;2022-09-21T04:26:00;5.82;;;3.22;;
28920;SDS011;16035;53.594;9.952;2022-09-21T04:28:01;8.17;;;3.33;;
28920;SDS011;16035;53.594;9.952;2022-09-21T04:30:02;11.73;;;3.83;;
28920;SDS011;16035;53.594;9.952;2022-09-21T04:32:03;7.82;;;3.13;;
28920;SDS011;16035;53.594;9.952;2022-09-21T04:34:04;13.63;;;3.42;;
28920;SDS011;16035;53.594;9.952;2022-09-21T04:36:05;9.33;;;3.87;;
28920;SDS011;16035;53.594;9.952;2022-09-21T04:38:06;6.70;;;3.50;;
28920;SDS011;16035;53.594;9.952;2022-09-21T04:40:06;6.33;;;3.53;;
28920;SDS011;16035;53.594;9.952;2022-09-21T04:42:08;5.85;;;3.10;;
28920;SDS011;16035;53.594;9.952;2022-09-21T04:44:08;7.23;;;3.80;;
28920;SDS011;16035;53.594;9.952;2022-09-21T04:46:09;5.67;;;3.37;;
28920;SDS011;16035;53.594;9.952;2022-09-21T04:48:11;7.07;;;3.50;;
28920;SDS011;16035;53.594;9.952;2022-09-21T04:50:11;5.57;;;3.10;;
28920;SDS011;16035;53.594;9.952;2022-09-21T04:52:12;5.27;;;3.00;;
28920;SDS011;16035;53.594;9.952;2022-09-21T04:54:12;5.53;;;3.67;;
28920;SDS011;16035;53.594;9.952;2022-09-21T04:56:14;4.37;;;3.13;;
28920;SDS011;16035;53.594;9.952;2022-09-21T04:58:15;6.90;;;3.60;;
28920;SDS011;16035;53.594;9.952;2022-09-21T05:00:15;5.00;;;2.90;;
28920;SDS011;16035;53.594;9.952;2022-09-21T05:02:16;5.13;;;3.40;;
28920;SDS011;16035;53.594;9.952;2022-09-21T05:04:16;9.10;;;3.73;;
28920;SDS011;16035;53.594;9.952;2022-09-21T05:06:16;5.80;;;3.07;;
28920;SDS011;16035;53.594;9.952;2022-09-21T05:08:17;7.53;;;3.87;;
28920;SDS011;16035;53.594;9.952;2022-09-21T05:10:37;9.65;;;4.60;;
28920;SDS011;16035;53.594;9.952;2022-09-21T05:12:37;4.77;;;3.60;;
28920;SDS011;16035;53.594;9.952;2022-09-21T05:14:37;5.23;;;3.67;;
28920;SDS011;16035;53.594;9.952;2022-09-21T05:16:38;6.30;;;3.33;;
28920;SDS011;16035;53.594;9.952;2022-09-21T05:18:38;5.20;;;3.60;;
28920;SDS011;16035;53.594;9.952;2022-09-21T05:20:38;5.73;;;3.70;;
28920;SDS011;16035;53.594;9.952;2022-09-21T05:22:39;6.60;;;3.67;;
28920;SDS011;16035;53.594;9.952;2022-09-21T05:24:39;6.27;;;3.07;;
28920;SDS011;16035;53.594;9.952;2022-09-21T05:26:39;7.60;;;3.33;;
28920;SDS011;16035;53.594;9.952;2022-09-21T05:28:40;8.47;;;3.40;;
28920;SDS011;16035;53.594;9.952;2022-09-21T05:30:40;8.50;;;3.25;;
28920;SDS011;16035;53.594;9.952;2022-09-21T05:32:44;5.63;;;3.47;;
28920;SDS011;16035;53.594;9.952;2022-09-21T05:37:06;7.63;;;3.60;;
28920;SDS011;16035;53.594;9.952;2022-09-21T05:39:11;6.05;;;3.13;;
28920;SDS011;16035;53.594;9.952;2022-09-21T05:41:12;6.20;;;3.80;;
28920;SDS011;16035;53.594;9.952;2022-09-21T05:43:13;6.07;;;3.67;;
28920;SDS011;16035;53.594;9.952;2022-09-21T05:45:14;11.10;;;4.00;;
28920;SDS011;16035;53.594;9.952;2022-09-21T05:52:22;6.55;;;3.85;;
28920;SDS011;16035;53.594;9.952;2022-09-21T05:59:24;7.10;;;3.70;;
28920;SDS011;16035;53.594;9.952;2022-09-21T06:04:09;6.30;;;3.33;;
28920;SDS011;16035;53.594;9.952;2022-09-21T06:06:13;7.30;;;3.88;;
28920;SDS011;16035;53.594;9.952;2022-09-21T06:08:13;10.07;;;4.23;;
28920;SDS011;16035;53.594;9.952;2022-09-21T06:10:14;15.10;;;3.83;;
28920;SDS011;16035;53.594;9.952;2022-09-21T06:12:15;10.05;;;4.40;;
28920;SDS011;16035;53.594;9.952;2022-09-21T06:14:15;7.23;;;3.97;;
28920;SDS011;16035;53.594;9.952;2022-09-21T06:16:16;7.70;;;3.97;;
28920;SDS011;16035;53.594;9.952;2022-09-21T06:18:16;7.60;;;3.87;;
28920;SDS011;16035;53.594;9.952;2022-09-21T06:20:17;10.63;;;4.47;;
28920;SDS011;16035;53.594;9.952;2022-09-21T06:22:17;8.60;;;4.27;;
28920;SDS011;16035;53.594;9.952;2022-09-21T06:24:18;14.80;;;4.53;;
28920;SDS011;16035;53.594;9.952;2022-09-21T06:26:18;10.73;;;4.80;;
28920;SDS011;16035;53.594;9.952;2022-09-21T06:28:19;10.83;;;4.20;;
28920;SDS011;16035;53.594;9.952;2022-09-21T06:30:19;11.57;;;5.07;;
28920;SDS011;16035;53.594;9.952;2022-09-21T06:32:19;12.03;;;4.90;;
28920;SDS011;16035;53.594;9.952;2022-09-21T06:34:20;10.57;;;4.13;;
28920;SDS011;16035;53.594;9.952;2022-09-21T06:36:20;8.67;;;4.47;;
28920;SDS011;16035;53.594;9.952;2022-09-21T06:38:20;13.13;;;5.17;;
28920;SDS011;16035;53.594;9.952;2022-09-21T06:40:21;19.77;;;5.25;;
28920;SDS011;16035;53.594;9.952;2022-09-21T06:42:22;14.50;;;5.40;;
28920;SDS011;16035;53.594;9.952;2022-09-21T06:44:22;14.17;;;5.70;;
28920;SDS011;16035;53.594;9.952;2022-09-21T06:46:23;11.70;;;5.53;;
28920;SDS011;16035;53.594;9.952;2022-09-21T06:48:23;10.57;;;5.20;;
28920;SDS011;16035;53.594;9.952;2022-09-21T06:50:24;8.60;;;4.78;;
28920;SDS011;16035;53.594;9.952;2022-09-21T06:52:25;15.27;;;6.00;;
28920;SDS011;16035;53.594;9.952;2022-09-21T06:54:25;9.93;;;4.83;;
28920;SDS011;16035;53.594;9.952;2022-09-21T06:56:25;9.97;;;4.80;;
28920;SDS011;16035;53.594;9.952;2022-09-21T06:58:26;17.03;;;5.70;;
28920;SDS011;16035;53.594;9.952;2022-09-21T07:00:26;9.97;;;5.70;;
28920;SDS011;16035;53.594;9.952;2022-09-21T07:02:27;8.27;;;5.37;;
28920;SDS011;16035;53.594;9.952;2022-09-21T07:04:27;10.27;;;5.40;;
28920;SDS011;16035;53.594;9.952;2022-09-21T07:06:28;13.17;;;5.30;;
28920;SDS011;16035;53.594;9.952;2022-09-21T07:08:29;12.43;;;5.30;;
28920;SDS011;16035;53.594;9.952;2022-09-21T07:10:29;9.43;;;5.43;;
28920;SDS011;16035;53.594;9.952;2022-09-21T07:12:29;10.30;;;4.73;;
28920;SDS011;16035;53.594;9.952;2022-09-21T07:14:33;7.32;;;4.55;;
28920;SDS011;16035;53.594;9.952;2022-09-21T07:16:33;5.73;;;3.53;;
28920;SDS011;16035;53.594;9.952;2022-09-21T07:18:35;13.68;;;4.45;;
28920;SDS011;16035;53.594;9.952;2022-09-21T07:20:37;12.00;;;5.45;;
28920;SDS011;16035;53.594;9.952;2022-09-21T07:22:39;7.40;;;4.15;;
28920;SDS011;16035;53.594;9.952;2022-09-21T07:24:40;7.10;;;4.27;;
28920;SDS011;16035;53.594;9.952;2022-09-21T07:26:40;6.83;;;4.20;;
28920;SDS011;16035;53.594;9.952;2022-09-21T07:28:41;11.97;;;5.07;;
28920;SDS011;16035;53.594;9.952;2022-09-21T07:30:41;8.10;;;4.90;;
28920;SDS011;16035;53.594;9.952;2022-09-21T07:32:42;9.23;;;5.20;;
28920;SDS011;16035;53.594;9.952;2022-09-21T07:34:42;10.03;;;5.10;;
28920;SDS011;16035;53.594;9.952;2022-09-21T07:36:43;12.17;;;4.50;;
28920;SDS011;16035;53.594;9.952;2022-09-21T07:38:43;8.90;;;4.17;;
28920;SDS011;16035;53.594;9.952;2022-09-21T07:40:43;10.53;;;3.83;;
28920;SDS011;16035;53.594;9.952;2022-09-21T07:42:44;8.00;;;3.90;;
28920;SDS011;16035;53.594;9.952;2022-09-21T07:44:45;15.87;;;5.63;;
28920;SDS011;16035;53.594;9.952;2022-09-21T07:46:47;9.07;;;4.88;;
28920;SDS011;16035;53.594;9.952;2022-09-21T07:48:47;7.13;;;3.75;;
28920;SDS011;16035;53.594;9.952;2022-09-21T07:50:48;9.87;;;4.80;;
28920;SDS011;16035;53.594;9.952;2022-09-21T07:52:48;11.43;;;7.20;;
28920;SDS011;16035;53.594;9.952;2022-09-21T07:54:49;16.27;;;5.63;;
28920;SDS011;16035;53.594;9.952;2022-09-21T07:56:49;9.47;;;5.30;;
28920;SDS011;16035;53.594;9.952;2022-09-21T07:59:08;13.43;;;5.47;;
28920;SDS011;16035;53.594;9.952;2022-09-21T08:03:11;8.93;;;3.07;;
28920;SDS011;16035;53.594;9.952;2022-09-21T08:05:11;6.53;;;3.60;;
28920;SDS011;16035;53.594;9.952;2022-09-21T08:07:11;7.67;;;3.90;;
28920;SDS011;16035;53.594;9.952;2022-09-21T08:09:12;5.47;;;3.07;;
28920;SDS011;16035;53.594;9.952;2022-09-21T08:11:13;5.63;;;2.80;;
28920;SDS011;16035;53.594;9.952;2022-09-21T08:13:18;4.95;;;2.95;;
28920;SDS011;16035;53.594;9.952;2022-09-21T08:15:18;6.07;;;2.57;;
28920;SDS011;16035;53.594;9.952;2022-09-21T08:17:19;4.70;;;2.77;;
28920;SDS011;16035;53.594;9.952;2022-09-21T08:19:19;7.13;;;3.03;;
28920;SDS011;16035;53.594;9.952;2022-09-21T08:21:20;4.87;;;2.40;;
28920;SDS011;16035;53.594;9.952;2022-09-21T08:23:20;5.07;;;3.10;;
28920;SDS011;16035;53.594;9.952;2022-09-21T08:25:21;3.87;;;2.90;;
28920;SDS011;16035;53.594;9.952;2022-09-21T08:27:22;6.05;;;3.25;;
28920;SDS011;16035;53.594;9.952;2022-09-21T08:29:24;5.20;;;3.10;;
28920;SDS011;16035;53.594;9.952;2022-09-21T08:31:25;7.15;;;3.83;;
28920;SDS011;16035;53.594;9.952;2022-09-21T08:33:26;7.67;;;3.30;;
28920;SDS011;16035;53.594;9.952;2022-09-21T08:35:26;6.40;;;3.17;;
28920;SDS011;16035;53.594;9.952;2022-09-21T08:37:27;6.03;;;3.03;;
28920;SDS011;16035;53.594;9.952;2022-09-21T08:39:28;6.40;;;2.80;;
28920;SDS011;16035;53.594;9.952;2022-09-21T08:43:56;4.95;;;2.78;;
28920;SDS011;16035;53.594;9.952;2022-09-21T08:46:05;6.03;;;2.40;;
28920;SDS011;16035;53.594;9.952;2022-09-21T08:48:19;5.13;;;2.03;;
28920;SDS011;16035;53.594;9.952;2022-09-21T08:50:33;4.57;;;2.25;;
28920;SDS011;16035;53.594;9.952;2022-09-21T08:52:36;4.65;;;2.17;;
28920;SDS011;16035;53.594;9.952;2022-09-21T08:56:42;5.40;;;1.63;;
28920;SDS011;16035;53.594;9.952;2022-09-21T08:58:43;4.73;;;1.90;;
28920;SDS011;16035;53.594;9.952;2022-09-21T09:00:43;3.90;;;1.80;;
28920;SDS011;16035;53.594;9.952;2022-09-21T09:05:06;3.72;;;1.48;;
28920;SDS011;16035;53.594;9.952;2022-09-21T09:16:17;2.75;;;1.20;;
28920;SDS011;16035;53.594;9.952;2022-09-21T09:22:44;4.90;;;1.98;;
28920;SDS011;16035;53.594;9.952;2022-09-21T09:24:52;4.32;;;1.85;;
28920;SDS011;16035;53.594;9.952;2022-09-21T09:27:04;2.22;;;1.45;;
28920;SDS011;16035;53.594;9.952;2022-09-21T09:31:30;3.70;;;2.40;;
28920;SDS011;16035;53.594;9.952;2022-09-21T09:36:02;4.28;;;1.80;;
28920;SDS011;16035;53.594;9.952;2022-09-21T09:38:09;4.05;;;1.85;;
28920;SDS011;16035;53.594;9.952;2022-09-21T09:40:23;5.00;;;1.77;;
28920;SDS011;16035;53.594;9.952;2022-09-21T09:42:42;2.38;;;1.33;;
28920;SDS011;16035;53.594;9.952;2022-09-21T09:49:35;3.80;;;1.80;;
28920;SDS011;16035;53.594;9.952;2022-09-21T09:51:56;3.70;;;1.40;;
28920;SDS011;16035;53.594;9.952;2022-09-21T09:53:58;5.25;;;1.20;;
28920;SDS011;16035;53.594;9.952;2022-09-21T09:55:59;2.15;;;1.23;;
28920;SDS011;16035;53.594;9.952;2022-09-21T09:58:00;1.77;;;1.00;;
28920;SDS011;16035;53.594;9.952;2022-09-21T10:00:02;3.00;;;1.10;;
28920;SDS011;16035;53.594;9.952;2022-09-21T10:02:29;1.52;;;0.88;;
28920;SDS011;16035;53.594;9.952;2022-09-21T10:04:29;2.15;;;1.13;;
28920;SDS011;16035;53.594;9.952;2022-09-21T10:06:31;2.63;;;1.35;;
28920;SDS011;16035;53.594;9.952;2022-09-21T10:08:42;1.40;;;0.88;;
28920;SDS011;16035;53.594;9.952;2022-09-21T10:10:46;1.35;;;0.65;;
28920;SDS011;16035;53.594;9.952;2022-09-21T10:12:47;2.22;;;0.70;;
28920;SDS011;16035;53.594;9.952;2022-09-21T10:14:49;0.70;;;0.70;;
28920;SDS011;16035;53.594;9.952;2022-09-21T10:16:51;1.23;;;0.90;;
28920;SDS011;16035;53.594;9.952;2022-09-21T10:18:54;1.02;;;0.80;;
28920;SDS011;16035;53.594;9.952;2022-09-21T10:21:02;0.65;;;0.60;;
28920;SDS011;16035;53.594;9.952;2022-09-21T10:23:08;0.80;;;0.70;;
28920;SDS011;16035;53.594;9.952;2022-09-21T10:25:15;3.50;;;1.10;;
28920;SDS011;16035;53.594;9.952;2022-09-21T10:27:20;1.38;;;0.63;;
28920;SDS011;16035;53.594;9.952;2022-09-21T10:31:35;1.15;;;0.65;;
28920;SDS011;16035;53.594;9.952;2022-09-21T10:33:45;1.63;;;0.70;;
28920;SDS011;16035;53.594;9.952;2022-09-21T10:35:49;1.48;;;0.70;;
28920;SDS011;16035;53.594;9.952;2022-09-21T10:38:10;1.40;;;0.88;;
28920;SDS011;16035;53.594;9.952;2022-09-21T10:42:17;2.03;;;0.73;;
28920;SDS011;16035;53.594;9.952;2022-09-21T10:44:19;3.20;;;0.73;;
28920;SDS011;16035;53.594;9.952;2022-09-21T10:46:33;0.73;;;0.70;;
28920;SDS011;16035;53.594;9.952;2022-09-21T10:48:34;1.33;;;0.70;;
28920;SDS011;16035;53.594;9.952;2022-09-21T10:50:36;1.52;;;0.70;;
28920;SDS011;16035;53.594;9.952;2022-09-21T10:52:41;1.23;;;0.70;;
28920;SDS011;16035;53.594;9.952;2022-09-21T10:54:42;1.33;;;0.75;;
28920;SDS011;16035;53.594;9.952;2022-09-21T10:57:16;1.90;;;0.70;;
28920;SDS011;16035;53.594;9.952;2022-09-21T10:59:24;0.82;;;0.60;;
28920;SDS011;16035;53.594;9.952;2022-09-21T11:01:26;1.48;;;0.38;;
28920;SDS011;16035;53.594;9.952;2022-09-21T11:05:31;0.73;;;0.60;;
28920;SDS011;16035;53.594;9.952;2022-09-21T11:16:40;1.17;;;0.75;;
28920;SDS011;16035;53.594;9.952;2022-09-21T11:21:08;1.25;;;0.60;;
28920;SDS011;16035;53.594;9.952;2022-09-21T11:23:25;2.50;;;0.63;;
28920;SDS011;16035;53.594;9.952;2022-09-21T11:25:41;1.15;;;0.85;;
28920;SDS011;16035;53.594;9.952;2022-09-21T11:27:59;1.17;;;0.65;;
28920;SDS011;16035;53.594;9.952;2022-09-21T11:30:13;7.07;;;0.60;;
28920;SDS011;16035;53.594;9.952;2022-09-21T11:42:46;1.90;;;0.80;;
28920;SDS011;16035;53.594;9.952;2022-09-21T11:45:09;1.63;;;0.90;;
28920;SDS011;16035;53.594;9.952;2022-09-21T11:48:09;1.08;;;0.82;;
28920;SDS011;16035;53.594;9.952;2022-09-21T11:50:19;0.82;;;0.70;;
28920;SDS011;16035;53.594;9.952;2022-09-21T11:52:36;3.58;;;0.70;;
28920;SDS011;16035;53.594;9.952;2022-09-21T11:57:15;1.70;;;0.90;;
28920;SDS011;16035;53.594;9.952;2022-09-21T11:59:38;1.40;;;0.77;;
28920;SDS011;16035;53.594;9.952;2022-09-21T12:15:39;1.23;;;0.80;;
28920;SDS011;16035;53.594;9.952;2022-09-21T12:17:54;3.28;;;1.00;;
28920;SDS011;16035;53.594;9.952;2022-09-21T12:20:02;2.30;;;1.20;;
28920;SDS011;16035;53.594;9.952;2022-09-21T12:22:15;1.55;;;0.80;;
28920;SDS011;16035;53.594;9.952;2022-09-21T12:24:25;1.38;;;0.90;;
28920;SDS011;16035;53.594;9.952;2022-09-21T12:26:35;1.08;;;0.68;;
28920;SDS011;16035;53.594;9.952;2022-09-21T12:28:49;1.15;;;0.70;;
28920;SDS011;16035;53.594;9.952;2022-09-21T12:31:00;1.48;;;0.73;;
28920;SDS011;16035;53.594;9.952;2022-09-21T12:33:08;1.10;;;0.70;;
28920;SDS011;16035;53.594;9.952;2022-09-21T12:35:18;0.77;;;0.70;;
28920;SDS011;16035;53.594;9.952;2022-09-21T12:37:32;0.88;;;0.70;;
28920;SDS011;16035;53.594;9.952;2022-09-21T12:39:41;1.33;;;0.90;;
28920;SDS011;16035;53.594;9.952;2022-09-21T12:41:55;1.95;;;0.77;;
28920;SDS011;16035;53.594;9.952;2022-09-21T12:46:16;2.00;;;0.90;;
28920;SDS011;16035;53.594;9.952;2022-09-21T12:50:38;1.20;;;0.75;;
28920;SDS011;16035;53.594;9.952;2022-09-21T12:52:43;1.92;;;1.00;;
28920;SDS011;16035;53.594;9.952;2022-09-21T12:55:03;2.30;;;1.10;;
28920;SDS011;16035;53.594;9.952;2022-09-21T13:02:20;1.65;;;0.90;;
28920;SDS011;16035;53.594;9.952;2022-09-21T13:04:34;1.33;;;0.93;;
28920;SDS011;16035;53.594;9.952;2022-09-21T13:08:50;3.30;;;1.10;;
28920;SDS011;16035;53.594;9.952;2022-09-21T13:13:00;1.50;;;0.73;;
28920;SDS011;16035;53.594;9.952;2022-09-21T13:15:03;1.17;;;0.60;;
28920;SDS011;16035;53.594;9.952;2022-09-21T13:17:20;2.75;;;0.93;;
28920;SDS011;16035;53.594;9.952;2022-09-21T13:19:24;0.40;;;0.40;;
28920;SDS011;16035;53.594;9.952;2022-09-21T13:21:28;0.55;;;0.50;;
28920;SDS011;16035;53.594;9.952;2022-09-21T13:23:34;1.23;;;0.75;;
28920;SDS011;16035;53.594;9.952;2022-09-21T13:25:40;1.17;;;0.77;;
28920;SDS011;16035;53.594;9.952;2022-09-21T13:28:03;1.67;;;0.73;;
28920;SDS011;16035;53.594;9.952;2022-09-21T13:30:17;0.85;;;0.65;;
28920;SDS011;16035;53.594;9.952;2022-09-21T13:32:29;0.63;;;0.55;;
28920;SDS011;16035;53.594;9.952;2022-09-21T13:34:51;1.13;;;0.65;;
28920;SDS011;16035;53.594;9.952;2022-09-21T13:39:14;1.80;;;0.85;;
28920;SDS011;16035;53.594;9.952;2022-09-21T13:43:17;0.87;;;0.53;;
28920;SDS011;16035;53.594;9.952;2022-09-21T13:47:31;1.45;;;0.70;;
28920;SDS011;16035;53.594;9.952;2022-09-21T13:49:41;3.67;;;0.80;;
28920;SDS011;16035;53.594;9.952;2022-09-21T13:53:54;0.95;;;0.55;;
28920;SDS011;16035;53.594;9.952;2022-09-21T13:56:18;1.38;;;0.77;;
28920;SDS011;16035;53.594;9.952;2022-09-21T13:58:33;1.02;;;0.60;;
28920;SDS011;16035;53.594;9.952;2022-09-21T14:00:39;1.00;;;0.60;;
28920;SDS011;16035;53.594;9.952;2022-09-21T14:04:53;1.85;;;0.75;;
28920;SDS011;16035;53.594;9.952;2022-09-21T14:06:54;1.15;;;0.60;;
28920;SDS011;16035;53.594;9.952;2022-09-21T14:09:03;1.30;;;0.47;;
28920;SDS011;16035;53.594;9.952;2022-09-21T14:11:14;1.38;;;0.63;;
28920;SDS011;16035;53.594;9.952;2022-09-21T14:15:36;0.60;;;0.40;;
28920;SDS011;16035;53.594;9.952;2022-09-21T14:17:38;1.58;;;0.80;;
28920;SDS011;16035;53.594;9.952;2022-09-21T14:26:19;1.10;;;0.28;;
28920;SDS011;16035;53.594;9.952;2022-09-21T14:28:40;2.25;;;1.20;;
28920;SDS011;16035;53.594;9.952;2022-09-21T14:30:48;1.05;;;0.80;;
28920;SDS011;16035;53.594;9.952;2022-09-21T14:33:03;2.75;;;1.08;;
28920;SDS011;16035;53.594;9.952;2022-09-21T14:35:23;2.40;;;0.95;;
28920;SDS011;16035;53.594;9.952;2022-09-21T14:37:59;2.75;;;1.00;;
28920;SDS011;16035;53.594;9.952;2022-09-21T14:39:55;1.58;;;0.70;;
28920;SDS011;16035;53.594;9.952;2022-09-21T14:41:57;1.63;;;0.65;;
28920;SDS011;16035;53.594;9.952;2022-09-21T14:44:03;1.45;;;0.60;;
28920;SDS011;16035;53.594;9.952;2022-09-21T14:48:49;0.95;;;0.60;;
28920;SDS011;16035;53.594;9.952;2022-09-21T14:51:02;0.60;;;0.50;;
28920;SDS011;16035;53.594;9.952;2022-09-21T15:00:18;3.53;;;0.50;;
28920;SDS011;16035;53.594;9.952;2022-09-21T15:02:31;1.33;;;0.38;;
28920;SDS011;16035;53.594;9.952;2022-09-21T15:04:46;2.15;;;0.47;;
28920;SDS011;16035;53.594;9.952;2022-09-21T15:09:35;1.70;;;0.47;;
28920;SDS011;16035;53.594;9.952;2022-09-21T15:12:18;0.65;;;0.40;;
28920;SDS011;16035;53.594;9.952;2022-09-21T15:14:32;0.60;;;0.30;;
28920;SDS011;16035;53.594;9.952;2022-09-21T15:16:43;0.63;;;0.40;;
28920;SDS011;16035;53.594;9.952;2022-09-21T15:18:47;2.45;;;0.40;;
28920;SDS011;16035;53.594;9.952;2022-09-21T15:20:54;1.88;;;0.65;;
28920;SDS011;16035;53.594;9.952;2022-09-21T15:23:00;4.57;;;0.50;;